CW9888 Weather Reports


Display with metric or nautical units.
time (UTC)temp
F
wind
direction
speed
MPH
gust
MPH
rain 1hr
in
rain 24hr
in
rain mn
in
humidity
%
barometer
mb
20181115080039 67 215 2.0 4.0 0.00 0.94 0.00 74 1012.5
20181115074529 67 196 2.0 5.0 0.00 0.94 0.00 74 1012.5
20181115073049 66 198 2.0 4.0 0.00 0.94 0.00 75 1012.4
20181115071518 66 207 1.0 3.0 0.00 0.94 0.00 79 1012.3
20181115070010 65 150 2.0 4.0 0.00 0.94 0.00 80 1012.4
20181115064535 64 207 1.0 3.0 0.00 0.94 0.00 81 1012.3
20181115063006 63 197 2.0 4.0 0.00 0.94 0.00 83 1012.4
20181115061647 63 207 2.0 4.0 0.00 0.94 0.00 84 1012.3
20181115060240 62 197 1.0 4.0 0.00 0.94 0.00 85 1012.1
20181115054723 61 205 3.0 4.0 0.00 0.94 0.00 85 1012.0
20181115053144 61 202 1.0 3.0 0.00 0.94 0.00 86 1011.9
20181115051634 61 189 1.0 3.0 0.00 0.94 0.00 86 1011.8
20181115050128 60 206 2.0 3.0 0.00 0.94 0.00 87 1011.6
20181115044611 60 192 2.0 3.0 0.00 0.94 0.00 87 1011.5
20181115043130 60 190 2.0 3.0 0.00 0.94 0.00 87 1011.3
20181115041638 60 203 1.0 3.0 0.00 0.94 0.00 87 1011.3
20181115040103 60 205 2.0 3.0 0.00 0.94 0.00 87 1011.2
20181115034625 60 199 2.0 3.0 0.00 0.94 0.00 87 1010.9
20181115033101 60 201 1.0 3.0 0.00 0.94 0.00 88 1010.9
20181115031708 60 154 0.0 3.0 0.00 0.94 0.00 87 1010.8
20181115030050 60 133 0.0 4.0 0.00 0.94 0.00 87 1010.7
20181115024613 60 134 0.0 4.0 0.00 0.94 0.00 86 1010.6
20181115023106 61 134 2.0 3.0 0.00 0.94 0.00 86 1010.4
20181115021552 61 192 2.0 4.0 0.00 0.94 0.00 86 1010.2
20181115020059 61 207 1.0 3.0 0.00 0.94 0.00 86 1010.1
20181115014628 61 210 1.0 3.0 0.00 0.94 0.00 86 1010.0
20181115013043 60 205 1.0 3.0 0.00 0.94 0.00 86 1010.0
20181115011601 60 218 2.0 4.0 0.00 0.94 0.00 86 1010.0
20181115010051 60 197 2.0 3.0 0.00 0.94 0.00 86 1010.1
20181115004551 60 200 1.0 3.0 0.00 0.94 0.00 87 1010.1
20181115003103 60 208 1.0 3.0 0.00 0.94 0.00 86 1010.0
20181115001543 60 202 1.0 3.0 0.00 0.94 0.00 86 1010.0
20181115000039 60 192 1.0 3.0 0.00 0.94 0.00 86 1010.0
20181114234606 60 209 1.0 3.0 0.00 0.94 0.00 87 1010.1
20181114233108 60 209 1.0 3.0 0.00 0.94 0.00 87 1010.1
20181114231554 60 203 1.0 3.0 0.00 0.94 0.00 87 1010.1
20181114230039 60 206 1.0 3.0 0.00 0.94 0.00 88 1010.2
20181114224622 60 213 1.0 3.0 0.00 0.94 0.00 88 1010.2
20181114223038 60 202 1.0 2.0 0.00 0.94 0.00 89 1010.1
20181114221556 60 195 1.0 2.0 0.00 0.94 0.00 89 1010.1
20181114220048 60 164 0.0 2.0 0.00 0.94 0.00 89 1010.1
20181114214606 60 157 0.0 2.0 0.00 0.94 0.94 90 1010.1
20181114213111 60 133 1.0 2.0 0.01 0.94 0.94 90 1010.1
20181114211525 60 130 1.0 2.0 0.01 0.94 0.94 90 1010.1
20181114210042 60 132 1.0 2.0 0.01 0.94 0.94 91 1010.1
20181114204529 60 129 0.0 2.0 0.01 0.94 0.94 91 1010.2
20181114203034 60 132 0.0 2.0 0.00 0.94 0.94 91 1010.2
20181114201526 60 130 1.0 2.0 0.00 0.94 0.94 90 1010.2
20181114200056 61 107 0.0 2.0 0.00 0.94 0.94 91 1010.0
20181114194552 61 127 0.0 1.0 0.00 0.94 0.94 91 1010.0
20181114193022 60 126 0.0 2.0 0.00 0.94 0.94 91 1010.0
20181114191517 60 119 1.0 3.0 0.01 0.94 0.94 91 1010.1
20181114190028 61 114 1.0 2.0 0.02 0.94 0.94 91 1010.2
20181114184543 61 106 1.0 3.0 0.02 0.94 0.94 90 1010.2
20181114183014 61 46 0.0 1.0 0.11 0.94 0.94 90 1010.3
20181114181526 61 44 0.0 1.0 0.19 0.93 0.93 90 1010.4
20181114180020 60 38 0.0 2.0 0.18 0.92 0.92 89 1010.4
20181114174516 60 50 2.0 5.0 0.17 0.91 0.91 88 1010.8
20181114173033 62 308 3.0 5.0 0.08 0.82 0.82 85 1010.8
20181114171516 63 256 2.0 4.0 0.00 0.74 0.74 84 1010.5
20181114170012 63 186 0.0 3.0 0.00 0.74 0.74 86 1010.2
20181114164537 63 162 1.0 4.0 0.00 0.74 0.74 87 1010.1
20181114163008 63 163 1.0 3.0 0.00 0.74 0.74 87 1010.0
20181114161518 63 123 1.0 3.0 0.00 0.74 0.74 88 1009.9
20181114160023 63 121 0.0 3.0 0.00 0.74 0.74 88 1009.7
20181114154509 63 123 1.0 3.0 0.00 0.74 0.74 88 1009.7
20181114153012 63 162 1.0 4.0 0.00 0.74 0.74 88 1009.6
20181114151523 65 209 0.0 2.0 0.00 0.74 0.74 88 1009.5
20181114150022 66 207 0.0 1.0 0.00 0.74 0.74 88 1009.2
20181114144522 65 209 0.0 1.0 0.00 0.74 0.74 87 1009.0
20181114143010 65 210 0.0 1.0 0.00 0.74 0.74 87 1009.0
20181114141502 66 209 0.0 1.0 0.09 0.74 0.74 86 1008.8
20181114140009 65 209 0.0 2.0 0.64 0.74 0.74 86 1008.7
20181114134502 64 208 0.0 2.0 0.74 0.74 0.74 87 1008.5
20181114131711 62 204 2.0 10.0 0.65 0.65 0.65 82 1008.9
20181114130117 66 295 2.0 8.0 0.10 0.10 0.10 79 1008.7
20181114124647 69 310 3.0 6.0 0.00 0.00 0.00 72 1008.5
20181114123230 71 344 5.0 13.0 0.00 0.00 0.00 69 1008.5
20181114121710 71 294 4.0 9.0 0.00 0.00 0.00 63 1008.6
20181114120145 72 291 1.0 7.0 0.00 0.00 0.00 65 1008.6
20181114114622 72 254 2.0 9.0 0.00 0.00 0.00 65 1008.5
20181114113207 72 284 5.0 13.0 0.00 0.00 0.00 64 1008.5
20181114111658 71 264 4.0 10.0 0.00 0.00 0.00 65 1008.5
20181114110109 71 258 2.0 11.0 0.00 0.00 0.00 70 1008.4
20181114104634 70 360 2.0 5.0 0.00 0.00 0.00 70 1008.6
20181114103110 71 239 2.0 6.0 0.00 0.00 0.00 67 1008.6
20181114101624 71 225 2.0 4.0 0.00 0.00 0.00 68 1008.7
20181114100112 70 240 1.0 4.0 0.00 0.00 0.00 69 1008.8
20181114094701 70 252 2.0 5.0 0.00 0.00 0.00 69 1009.0
20181114093058 70 198 0.0 4.0 0.00 0.00 0.00 72 1009.2
20181114091611 69 207 2.0 5.0 0.00 0.00 0.00 74 1009.6
20181114090057 69 220 2.0 8.0 0.00 0.00 0.00 75 1009.8
20181114084549 69 233 2.0 4.0 0.00 0.00 0.00 75 1009.8
20181114083042 69 213 1.0 5.0 0.00 0.00 0.00 78 1009.9
20181114081546 68 200 3.0 10.0 0.00 0.00 0.00 78 1010.1